Back to Top

Language: 

My Weather Underground Personal Weather Station Historical Data with Graphs...

Delerius Weather Station Historical Data
Daily Summary for February 24, 2017 Units:  English    Metric   Both
« Previous Day
Next Day »
Daily Weekly Monthly Yearly Custom
  High: Low: Average:
Temperature: 49.1 °F 37.1 °F 42.5 °F
Dew Point: 37.8 °F 33.6 °F 35.6 °F
Humidity: 91 % 60 % 77 %
Wind Speed: 14.0 mph 0.0 mph 8.4 mph
Wind Gust: 46.0 mph - -
Wind:- - West
Pressure: 30.01 in 29.70 in -
Precipitation: 0.00 in    
Historical Graphs
 
 
Tabular Data for February 24, 2017
Time Temperature Dew Point Pressure Wind Wind Speed Wind Gust Humidity Rainfall Rate (Hourly) solar Conditions
00:00 39.3 °F 36.3 °F 29.70 in West 9.0 mph 46.0 mph 89 % 0.00 in 0 W/m2
00:05 39.4 °F 36.4 °F 29.70 in WNW 9.0 mph 46.0 mph 89 % 0.00 in 0 W/m2
00:15 39.4 °F 36.7 °F 29.70 in WNW 8.0 mph 13.0 mph 90 % 0.00 in 0 W/m2
00:20 39.4 °F 36.7 °F 29.71 in WNW 7.0 mph 7.0 mph 90 % 0.00 in 0 W/m2
00:25 39.4 °F 36.7 °F 29.71 in NW 6.0 mph 7.0 mph 90 % 0.00 in 0 W/m2
00:35 39.5 °F 37.1 °F 29.72 in WNW 8.0 mph 18.0 mph 91 % 0.00 in 0 W/m2
00:40 39.6 °F 36.9 °F 29.72 in NW 12.0 mph 12.0 mph 90 % 0.00 in 0 W/m2
00:45 39.7 °F 37.0 °F 29.72 in WNW 14.0 mph 18.0 mph 90 % 0.00 in 0 W/m2
00:50 39.7 °F 36.7 °F 29.72 in WNW 13.0 mph 13.0 mph 89 % 0.00 in 0 W/m2
01:00 39.8 °F 36.5 °F 29.73 in NW 13.0 mph 13.0 mph 88 % 0.00 in 0 W/m2
01:10 39.9 °F 36.6 °F 29.73 in WNW 12.0 mph 12.0 mph 88 % 0.00 in 0 W/m2
01:15 40.0 °F 36.7 °F 29.73 in WNW 11.0 mph 16.0 mph 88 % 0.00 in 0 W/m2
01:20 40.0 °F 36.7 °F 29.73 in WNW 10.0 mph 16.0 mph 88 % 0.00 in 0 W/m2
01:25 40.1 °F 36.8 °F 29.74 in WNW 10.0 mph 16.0 mph 88 % 0.00 in 0 W/m2
01:30 40.1 °F 36.8 °F 29.74 in WNW 10.0 mph 10.0 mph 88 % 0.00 in 0 W/m2
01:40 40.1 °F 36.8 °F 29.74 in WNW 9.0 mph 16.0 mph 88 % 0.00 in 0 W/m2
01:45 40.1 °F 36.8 °F 29.74 in WNW 9.0 mph 16.0 mph 88 % 0.00 in 0 W/m2
01:50 40.1 °F 36.5 °F 29.74 in WNW 10.0 mph 16.0 mph 87 % 0.00 in 0 W/m2
01:55 40.0 °F 36.4 °F 29.75 in West 10.0 mph 16.0 mph 87 % 0.00 in 0 W/m2
02:00 39.9 °F 36.1 °F 29.75 in WNW 10.0 mph 16.0 mph 86 % 0.00 in 0 W/m2
02:05 39.8 °F 36.0 °F 29.75 in WNW 11.0 mph 16.0 mph 86 % 0.00 in 0 W/m2
02:15 39.6 °F 35.5 °F 29.75 in WNW 9.0 mph 16.0 mph 85 % 0.00 in 0 W/m2
02:20 39.5 °F 35.4 °F 29.75 in WNW 8.0 mph 16.0 mph 85 % 0.00 in 0 W/m2
02:30 39.4 °F 35.3 °F 29.76 in WNW 10.0 mph 16.0 mph 85 % 0.00 in 0 W/m2
02:35 39.4 °F 35.6 °F 29.76 in WNW 9.0 mph 16.0 mph 86 % 0.00 in 0 W/m2
02:40 39.4 °F 35.6 °F 29.77 in West 9.0 mph 16.0 mph 86 % 0.00 in 0 W/m2
02:50 39.1 °F 35.6 °F 29.78 in WNW 12.0 mph 12.0 mph 87 % 0.00 in 0 W/m2
02:55 38.8 °F 35.3 °F 29.78 in WNW 12.0 mph 16.0 mph 87 % 0.00 in 0 W/m2
03:00 38.6 °F 35.1 °F 29.78 in WNW 10.0 mph 10.0 mph 87 % 0.00 in 0 W/m2
03:05 38.4 °F 34.9 °F 29.78 in West 9.0 mph 16.0 mph 87 % 0.00 in 0 W/m2
03:10 38.2 °F 34.7 °F 29.78 in West 9.0 mph 16.0 mph 87 % 0.00 in 0 W/m2
03:20 38.3 °F 34.5 °F 29.78 in West 11.0 mph 11.0 mph 86 % 0.00 in 0 W/m2
03:25 38.1 °F 34.3 °F 29.79 in NW 10.0 mph 16.0 mph 86 % 0.00 in 0 W/m2
03:35 37.9 °F 34.1 °F 29.79 in WNW 9.0 mph 16.0 mph 86 % 0.00 in 0 W/m2
03:40 37.7 °F 33.9 °F 29.80 in WNW 8.0 mph 16.0 mph 86 % 0.00 in 0 W/m2
03:45 37.7 °F 33.9 °F 29.79 in West 8.0 mph 16.0 mph 86 % 0.00 in 0 W/m2
03:55 37.5 °F 34.0 °F 29.79 in NW 9.0 mph 16.0 mph 87 % 0.00 in 0 W/m2
04:00 37.5 °F 34.0 °F 29.80 in WNW 10.0 mph 10.0 mph 87 % 0.00 in 0 W/m2
04:05 37.5 °F 34.0 °F 29.80 in WNW 9.0 mph 16.0 mph 87 % 0.00 in 0 W/m2
04:10 37.5 °F 34.0 °F 29.80 in WNW 9.0 mph 16.0 mph 87 % 0.00 in 0 W/m2
04:15 37.5 °F 34.0 °F 29.80 in WNW 9.0 mph 16.0 mph 87 % 0.00 in 0 W/m2
04:20 37.4 °F 34.2 °F 29.81 in West 10.0 mph 10.0 mph 88 % 0.00 in 0 W/m2
04:30 37.4 °F 34.2 °F 29.81 in WSW 12.0 mph 16.0 mph 88 % 0.00 in 0 W/m2
04:35 37.4 °F 33.9 °F 29.81 in WNW 12.0 mph 16.0 mph 87 % 0.00 in 0 W/m2
04:40 37.3 °F 33.8 °F 29.81 in West 11.0 mph 11.0 mph 87 % 0.00 in 0 W/m2
04:45 37.2 °F 33.7 °F 29.82 in West 10.0 mph 19.0 mph 87 % 0.00 in 0 W/m2
04:50 37.2 °F 34.0 °F 29.82 in West 12.0 mph 12.0 mph 88 % 0.00 in 0 W/m2
05:00 37.1 °F 33.6 °F 29.82 in NW 10.0 mph 16.0 mph 87 % 0.00 in 0 W/m2
05:10 37.1 °F 33.6 °F 29.83 in WNW 11.0 mph 16.0 mph 87 % 0.00 in 0 W/m2
05:15 37.2 °F 33.7 °F 29.83 in WNW 11.0 mph 16.0 mph 87 % 0.00 in 0 W/m2
05:20 37.2 °F 33.7 °F 29.83 in NW 10.0 mph 16.0 mph 87 % 0.00 in 0 W/m2
05:25 37.2 °F 33.7 °F 29.83 in WNW 10.0 mph 16.0 mph 87 % 0.00 in 0 W/m2
05:35 37.3 °F 33.8 °F 29.83 in WNW 9.0 mph 16.0 mph 87 % 0.00 in 0 W/m2
05:40 37.2 °F 33.7 °F 29.83 in West 9.0 mph 9.0 mph 87 % 0.00 in 0 W/m2
05:45 37.2 °F 33.7 °F 29.84 in WNW 9.0 mph 16.0 mph 87 % 0.00 in 0 W/m2
05:50 37.2 °F 34.0 °F 29.84 in NW 9.0 mph 9.0 mph 88 % 0.00 in 0 W/m2
05:55 37.2 °F 34.0 °F 29.84 in NW 9.0 mph 11.0 mph 88 % 0.00 in 0 W/m2
06:00 37.3 °F 34.1 °F 29.84 in WNW 10.0 mph 16.0 mph 88 % 0.00 in 0 W/m2
06:10 37.5 °F 34.3 °F 29.85 in WNW 10.0 mph 16.0 mph 88 % 0.00 in 0 W/m2
06:15 37.6 °F 34.4 °F 29.85 in NW 12.0 mph 16.0 mph 88 % 0.00 in 0 W/m2
06:20 37.6 °F 34.1 °F 29.84 in West 13.0 mph 13.0 mph 87 % 0.00 in 0 W/m2
06:30 37.6 °F 34.1 °F 29.85 in WNW 12.0 mph 12.0 mph 87 % 0.00 in 0 W/m2
06:35 37.6 °F 34.1 °F 29.85 in WNW 12.0 mph 16.0 mph 87 % 0.00 in 0 W/m2
06:45 37.8 °F 34.3 °F 29.86 in West 13.0 mph 16.0 mph 87 % 0.00 in 0 W/m2
06:50 37.8 °F 34.3 °F 29.86 in West 13.0 mph 19.0 mph 87 % 0.00 in 0 W/m2
06:55 37.8 °F 34.3 °F 29.87 in WNW 13.0 mph 19.0 mph 87 % 0.00 in 0 W/m2
07:00 37.7 °F 34.2 °F 29.87 in WNW 12.0 mph 12.0 mph 87 % 0.00 in 0 W/m2
07:05 37.6 °F 34.1 °F 29.88 in WNW 10.0 mph 16.0 mph 87 % 0.00 in 5 W/m2
07:15 37.4 °F 34.2 °F 29.88 in West 9.0 mph 16.0 mph 88 % 0.00 in 9 W/m2
07:20 37.3 °F 34.1 °F 29.89 in WNW 8.0 mph 8.0 mph 88 % 0.00 in 12 W/m2
07:25 37.2 °F 34.0 °F 29.89 in WNW 7.0 mph 16.0 mph 88 % 0.00 in 21 W/m2
07:30 37.2 °F 34.0 °F 29.89 in WNW 6.0 mph 16.0 mph 88 % 0.00 in 30 W/m2
07:35 37.2 °F 34.3 °F 29.90 in WNW 7.0 mph 16.0 mph 89 % 0.00 in 42 W/m2
07:40 37.4 °F 34.2 °F 29.90 in WNW 8.0 mph 8.0 mph 88 % 0.00 in 26 W/m2
07:50 37.6 °F 34.4 °F 29.90 in NW 7.0 mph 16.0 mph 88 % 0.00 in 53 W/m2
07:55 37.8 °F 34.6 °F 29.91 in West 8.0 mph 16.0 mph 88 % 0.00 in 83 W/m2
08:05 38.6 °F 35.1 °F 29.91 in West 10.0 mph 16.0 mph 87 % 0.00 in 98 W/m2
08:10 38.9 °F 35.4 °F 29.91 in West 10.0 mph 16.0 mph 87 % 0.00 in 123 W/m2
08:15 39.2 °F 35.4 °F 29.91 in WNW 10.0 mph 16.0 mph 86 % 0.00 in 142 W/m2
08:25 39.7 °F 35.6 °F 29.92 in WNW 12.0 mph 12.0 mph 85 % 0.00 in 149 W/m2
08:30 39.9 °F 35.8 °F 29.92 in NW 10.0 mph 20.0 mph 85 % 0.00 in 163 W/m2
08:35 40.2 °F 35.8 °F 29.92 in WNW 10.0 mph 20.0 mph 84 % 0.00 in 190 W/m2
08:40 40.3 °F 35.8 °F 29.93 in WNW 12.0 mph 12.0 mph 84 % 0.00 in 204 W/m2
08:45 40.5 °F 36.0 °F 29.93 in WNW 12.0 mph 16.0 mph 84 % 0.00 in 197 W/m2
08:55 40.9 °F 36.1 °F 29.94 in NNW 11.0 mph 16.0 mph 83 % 0.00 in 248 W/m2
09:05 41.5 °F 36.4 °F 29.94 in West 10.0 mph 11.0 mph 82 % 0.00 in 227 W/m2
09:10 41.7 °F 36.6 °F 29.94 in WNW 10.0 mph 18.0 mph 82 % 0.00 in 244 W/m2
09:15 41.9 °F 36.5 °F 29.94 in West 10.0 mph 18.0 mph 81 % 0.00 in 287 W/m2
09:20 42.0 °F 36.6 °F 29.95 in West 11.0 mph 16.0 mph 81 % 0.00 in 301 W/m2
09:30 42.5 °F 36.8 °F 29.95 in NNW 10.0 mph 10.0 mph 80 % 0.00 in 288 W/m2
09:40 42.9 °F 36.8 °F 29.96 in NW 9.0 mph 9.0 mph 79 % 0.00 in 336 W/m2
09:45 43.3 °F 36.9 °F 29.96 in WNW 9.0 mph 10.0 mph 78 % 0.00 in 338 W/m2
09:50 43.5 °F 36.8 °F 29.96 in WNW 11.0 mph 16.0 mph 77 % 0.00 in 353 W/m2
09:55 43.6 °F 36.9 °F 29.96 in NW 11.0 mph 16.0 mph 77 % 0.00 in 366 W/m2
10:05 43.9 °F 36.8 °F 29.96 in NW 11.0 mph 18.0 mph 76 % 0.00 in 387 W/m2
10:10 44.2 °F 37.1 °F 29.96 in NW 11.0 mph 11.0 mph 76 % 0.00 in 399 W/m2
10:15 44.3 °F 37.2 °F 29.96 in WNW 9.0 mph 16.0 mph 76 % 0.00 in 417 W/m2
10:20 44.4 °F 37.0 °F 29.97 in West 11.0 mph 16.0 mph 75 % 0.00 in 446 W/m2
10:25 44.6 °F 37.5 °F 29.97 in WNW 12.0 mph 16.0 mph 76 % 0.00 in 473 W/m2
10:35 44.1 °F 36.7 °F 29.98 in WNW 9.0 mph 16.0 mph 75 % 0.00 in 162 W/m2
10:40 43.8 °F 36.7 °F 29.98 in NW 8.0 mph 8.0 mph 76 % 0.00 in 123 W/m2
10:45 43.7 °F 36.6 °F 29.98 in NW 9.0 mph 15.0 mph 76 % 0.00 in 144 W/m2
10:50 43.8 °F 36.4 °F 29.98 in WNW 11.0 mph 11.0 mph 75 % 0.00 in 179 W/m2
11:00 44.8 °F 37.4 °F 29.98 in WNW 7.0 mph 16.0 mph 75 % 0.00 in 186 W/m2
11:05 45.2 °F 37.4 °F 29.99 in NW 9.0 mph 16.0 mph 74 % 0.00 in 585 W/m2
11:15 46.2 °F 37.7 °F 29.99 in WNW 9.0 mph 16.0 mph 72 % 0.00 in 594 W/m2
11:20 46.3 °F 37.4 °F 29.99 in West 9.0 mph 16.0 mph 71 % 0.00 in 615 W/m2
11:25 46.3 °F 37.4 °F 30.00 in WNW 9.0 mph 16.0 mph 71 % 0.00 in 629 W/m2
11:30 46.5 °F 36.9 °F 30.00 in WNW 10.0 mph 16.0 mph 69 % 0.00 in 199 W/m2
11:35 46.3 °F 37.0 °F 30.00 in WNW 11.0 mph 16.0 mph 70 % 0.00 in 134 W/m2
11:45 46.7 °F 37.1 °F 29.99 in WNW 12.0 mph 12.0 mph 69 % 0.00 in 345 W/m2
11:50 46.5 °F 36.5 °F 29.99 in WNW 13.0 mph 13.0 mph 68 % 0.00 in 185 W/m2
11:55 46.7 °F 37.4 °F 30.00 in NW 11.0 mph 16.0 mph 70 % 0.00 in 142 W/m2
12:00 46.3 °F 36.3 °F 30.00 in West 10.0 mph 16.0 mph 68 % 0.00 in 120 W/m2
12:05 45.9 °F 35.9 °F 30.00 in WNW 10.0 mph 16.0 mph 68 % 0.00 in 570 W/m2
12:15 46.7 °F 36.7 °F 30.00 in WNW 9.0 mph 15.0 mph 68 % 0.00 in 580 W/m2
12:20 47.4 °F 37.7 °F 29.99 in West 10.0 mph 16.0 mph 69 % 0.00 in 601 W/m2
12:25 47.8 °F 37.4 °F 29.99 in West 10.0 mph 16.0 mph 67 % 0.00 in 647 W/m2
12:30 48.2 °F 37.8 °F 30.00 in West 10.0 mph 10.0 mph 67 % 0.00 in 323 W/m2
12:40 48.2 °F 35.8 °F 29.99 in WNW 11.0 mph 16.0 mph 62 % 0.00 in 366 W/m2
12:50 48.1 °F 36.5 °F 29.99 in WNW 12.0 mph 12.0 mph 64 % 0.00 in 520 W/m2
12:55 48.3 °F 36.3 °F 29.99 in WNW 12.0 mph 14.0 mph 63 % 0.00 in 533 W/m2
13:00 48.5 °F 36.5 °F 29.99 in NW 11.0 mph 16.0 mph 63 % 0.00 in 480 W/m2
13:05 48.8 °F 36.4 °F 29.99 in WNW 10.0 mph 16.0 mph 62 % 0.00 in 559 W/m2
13:10 48.9 °F 36.4 °F 29.99 in West 11.0 mph 11.0 mph 62 % 0.00 in 543 W/m2
13:15 49.0 °F 35.7 °F 29.99 in WNW 10.0 mph 16.0 mph 60 % 0.00 in 527 W/m2
13:25 48.9 °F 36.9 °F 29.99 in West 9.0 mph 16.0 mph 63 % 0.00 in 468 W/m2
13:35 49.1 °F 36.2 °F 30.00 in West 11.0 mph 16.0 mph 61 % 0.00 in 396 W/m2
13:40 48.9 °F 35.6 °F 29.99 in WNW 12.0 mph 12.0 mph 60 % 0.00 in 429 W/m2
13:45 48.7 °F 35.8 °F 30.00 in West 11.0 mph 13.0 mph 61 % 0.00 in 362 W/m2
13:55 48.4 °F 35.1 °F 29.99 in WSW 10.0 mph 16.0 mph 60 % 0.00 in 288 W/m2
14:00 48.2 °F 35.4 °F 29.99 in West 10.0 mph 16.0 mph 61 % 0.00 in 403 W/m2
14:10 48.4 °F 35.1 °F 30.00 in WNW 10.0 mph 16.0 mph 60 % 0.00 in 311 W/m2
14:15 48.2 °F 35.0 °F 30.00 in WNW 11.0 mph 16.0 mph 60 % 0.00 in 332 W/m2
14:20 48.0 °F 34.8 °F 30.00 in WNW 11.0 mph 16.0 mph 60 % 0.00 in 345 W/m2
14:25 48.1 °F 34.9 °F 30.00 in NW 11.0 mph 16.0 mph 60 % 0.00 in 396 W/m2
14:30 48.4 °F 35.1 °F 29.99 in WNW 11.0 mph 11.0 mph 60 % 0.00 in 399 W/m2
14:40 48.9 °F 36.0 °F 30.00 in West 10.0 mph 16.0 mph 61 % 0.00 in 355 W/m2
14:45 48.8 °F 35.5 °F 30.00 in SW 11.0 mph 16.0 mph 60 % 0.00 in 309 W/m2
14:50 48.6 °F 35.3 °F 29.99 in NW 11.0 mph 16.0 mph 60 % 0.00 in 292 W/m2
14:55 48.5 °F 35.2 °F 29.99 in WNW 11.0 mph 16.0 mph 60 % 0.00 in 315 W/m2
15:00 48.5 °F 35.7 °F 30.00 in WNW 10.0 mph 16.0 mph 61 % 0.00 in 332 W/m2
15:10 48.4 °F 35.6 °F 30.00 in WSW 11.0 mph 11.0 mph 61 % 0.00 in 311 W/m2
15:15 48.2 °F 35.4 °F 30.00 in WNW 10.0 mph 16.0 mph 61 % 0.00 in 285 W/m2
15:20 48.2 °F 35.4 °F 29.99 in WNW 9.0 mph 16.0 mph 61 % 0.00 in 146 W/m2
15:25 47.8 °F 35.4 °F 30.00 in West 9.0 mph 16.0 mph 62 % 0.00 in 105 W/m2
15:30 47.3 °F 34.9 °F 30.00 in West 9.0 mph 9.0 mph 62 % 0.00 in 104 W/m2
15:35 46.8 °F 35.3 °F 30.00 in West 9.0 mph 16.0 mph 64 % 0.00 in 104 W/m2
15:45 46.4 °F 36.0 °F 30.00 in WNW 8.0 mph 16.0 mph 67 % 0.00 in 95 W/m2
15:50 46.1 °F 35.7 °F 30.01 in West 9.0 mph 9.0 mph 67 % 0.00 in 83 W/m2
15:55 45.8 °F 35.8 °F 30.01 in West 10.0 mph 10.0 mph 68 % 0.00 in 81 W/m2
16:00 45.5 °F 35.9 °F 30.01 in WNW 9.0 mph 16.0 mph 69 % 0.00 in 77 W/m2
16:05 45.3 °F 35.7 °F 30.01 in West 9.0 mph 16.0 mph 69 % 0.00 in 70 W/m2
16:10 45.1 °F 35.9 °F 30.01 in West 9.0 mph 9.0 mph 70 % 0.00 in 60 W/m2
16:20 45.0 °F 36.2 °F 30.00 in West 7.0 mph 16.0 mph 71 % 0.00 in 56 W/m2
16:25 44.8 °F 36.0 °F 30.00 in West 6.0 mph 16.0 mph 71 % 0.00 in 54 W/m2
16:30 44.7 °F 36.2 °F 30.00 in West 6.0 mph 6.0 mph 72 % 0.00 in 58 W/m2
16:35 44.7 °F 36.2 °F 30.00 in West 5.0 mph 16.0 mph 72 % 0.00 in 51 W/m2
16:40 44.7 °F 36.6 °F 30.00 in West 4.0 mph 4.0 mph 73 % 0.00 in 46 W/m2
16:50 44.6 °F 36.5 °F 30.01 in West 2.0 mph 16.0 mph 73 % 0.00 in 33 W/m2
16:55 44.5 °F 36.4 °F 30.00 in West 3.0 mph 16.0 mph 73 % 0.00 in 23 W/m2
17:00 44.4 °F 36.3 °F 30.00 in WSW 3.0 mph 16.0 mph 73 % 0.00 in 18 W/m2
17:05 44.3 °F 36.2 °F 30.00 in WSW 4.0 mph 16.0 mph 73 % 0.00 in 14 W/m2
17:10 44.2 °F 36.4 °F 30.00 in WSW 4.0 mph 4.0 mph 74 % 0.00 in 11 W/m2
17:20 44.1 °F 36.3 °F 30.00 in WSW 1.0 mph 1.0 mph 74 % 0.00 in 7 W/m2
17:25 43.9 °F 36.5 °F 30.00 in Calm   16.0 mph 75 % 0.00 in 5 W/m2
17:30 43.9 °F 36.5 °F 29.99 in Calm   16.0 mph 75 % 0.00 in 0 W/m2
17:35 43.9 °F 36.8 °F 29.99 in Calm   16.0 mph 76 % 0.00 in 0 W/m2
17:40 43.8 °F 36.7 °F 30.00 in Calm   16.0 mph 76 % 0.00 in 0 W/m2
17:50 43.6 °F 36.9 °F 30.00 in Calm   16.0 mph 77 % 0.00 in 0 W/m2
17:55 43.5 °F 36.8 °F 30.00 in Calm   16.0 mph 77 % 0.00 in 0 W/m2
18:00 43.5 °F 36.4 °F 30.00 in WSW 1.0 mph 1.0 mph 76 % 0.00 in 0 W/m2
18:05 43.5 °F 36.4 °F 30.00 in WSW 1.0 mph 16.0 mph 76 % 0.00 in 0 W/m2
18:10 43.4 °F 36.3 °F 30.00 in WSW 1.0 mph 16.0 mph 76 % 0.00 in 0 W/m2
18:15 43.5 °F 36.1 °F 30.00 in WSW 2.0 mph 16.0 mph 75 % 0.00 in 0 W/m2
18:20 43.5 °F 36.1 °F 30.00 in WSW 3.0 mph 16.0 mph 75 % 0.00 in 0 W/m2
18:30 43.5 °F 35.8 °F 30.00 in WSW 3.0 mph 3.0 mph 74 % 0.00 in 0 W/m2
18:35 43.5 °F 35.8 °F 30.00 in WSW 2.0 mph 16.0 mph 74 % 0.00 in 0 W/m2
18:40 43.5 °F 35.4 °F 30.00 in WSW 1.0 mph 16.0 mph 73 % 0.00 in 0 W/m2
18:45 43.4 °F 35.3 °F 30.01 in WSW 1.0 mph 16.0 mph 73 % 0.00 in 0 W/m2
18:50 43.4 °F 35.3 °F 30.01 in WSW 2.0 mph 16.0 mph 73 % 0.00 in 0 W/m2
19:00 43.4 °F 35.0 °F 30.01 in WSW 3.0 mph 16.0 mph 72 % 0.00 in 0 W/m2
19:05 43.4 °F 35.0 °F 30.01 in SW 4.0 mph 16.0 mph 72 % 0.00 in 0 W/m2
19:10 43.4 °F 35.0 °F 30.00 in SW 4.0 mph 16.0 mph 72 % 0.00 in 0 W/m2
19:15 43.4 °F 35.0 °F 30.00 in SW 3.0 mph 16.0 mph 72 % 0.00 in 0 W/m2
19:25 43.4 °F 35.0 °F 30.00 in SW 3.0 mph 16.0 mph 72 % 0.00 in 0 W/m2
19:30 43.3 °F 34.9 °F 30.00 in SSW 3.0 mph 3.0 mph 72 % 0.00 in 0 W/m2
19:35 43.3 °F 34.9 °F 30.00 in SSW 3.0 mph 16.0 mph 72 % 0.00 in 0 W/m2
19:45 43.3 °F 34.9 °F 30.00 in SSW 3.0 mph 16.0 mph 72 % 0.00 in 0 W/m2
19:50 43.2 °F 35.1 °F 30.00 in SSW 4.0 mph 4.0 mph 73 % 0.00 in 0 W/m2
19:55 43.2 °F 35.1 °F 30.00 in SSW 4.0 mph 16.0 mph 73 % 0.00 in 0 W/m2
20:00 43.2 °F 35.1 °F 29.99 in SSW 3.0 mph 16.0 mph 73 % 0.00 in 0 W/m2
20:10 43.2 °F 35.5 °F 29.99 in SSW 5.0 mph 16.0 mph 74 % 0.00 in 0 W/m2
20:15 43.2 °F 35.5 °F 29.99 in South 5.0 mph 16.0 mph 74 % 0.00 in 0 W/m2
20:20 43.2 °F 35.5 °F 29.98 in SSW 5.0 mph 5.0 mph 74 % 0.00 in 0 W/m2
20:25 43.3 °F 35.6 °F 29.98 in SSW 5.0 mph 6.0 mph 74 % 0.00 in 0 W/m2
20:30 43.3 °F 35.6 °F 29.98 in South 5.0 mph 5.0 mph 74 % 0.00 in 0 W/m2
20:40 43.3 °F 35.9 °F 29.98 in SSW 6.0 mph 16.0 mph 75 % 0.00 in 0 W/m2
20:45 43.3 °F 35.9 °F 29.98 in WSW 6.0 mph 16.0 mph 75 % 0.00 in 0 W/m2
20:50 43.2 °F 35.8 °F 29.98 in SW 6.0 mph 6.0 mph 75 % 0.00 in 0 W/m2
20:55 43.2 °F 35.8 °F 29.98 in South 6.0 mph 16.0 mph 75 % 0.00 in 0 W/m2
21:00 43.2 °F 35.8 °F 29.98 in SSW 6.0 mph 6.0 mph 75 % 0.00 in 0 W/m2
21:15 43.3 °F 35.6 °F 29.98 in SW 6.0 mph 16.0 mph 74 % 0.00 in 0 W/m2
21:20 43.3 °F 35.6 °F 29.97 in South 6.0 mph 16.0 mph 74 % 0.00 in 0 W/m2
21:25 43.3 °F 35.6 °F 29.97 in SW 7.0 mph 16.0 mph 74 % 0.00 in 0 W/m2
21:30 43.3 °F 35.6 °F 29.96 in SSW 8.0 mph 8.0 mph 74 % 0.00 in 0 W/m2
21:35 43.3 °F 35.6 °F 29.96 in SSW 7.0 mph 16.0 mph 74 % 0.00 in 0 W/m2
21:45 43.2 °F 35.5 °F 29.96 in SSW 6.0 mph 16.0 mph 74 % 0.00 in 0 W/m2
21:50 43.2 °F 35.5 °F 29.96 in SSW 6.0 mph 16.0 mph 74 % 0.00 in 0 W/m2
21:55 43.2 °F 35.5 °F 29.96 in SW 7.0 mph 16.0 mph 74 % 0.00 in 0 W/m2
22:00 43.2 °F 35.5 °F 29.95 in SSW 8.0 mph 16.0 mph 74 % 0.00 in 0 W/m2
22:05 43.2 °F 35.5 °F 29.95 in SW 9.0 mph 16.0 mph 74 % 0.00 in 0 W/m2
22:10 43.2 °F 35.5 °F 29.95 in SSW 9.0 mph 16.0 mph 74 % 0.00 in 0 W/m2
22:20 43.3 °F 35.6 °F 29.95 in SW 9.0 mph 16.0 mph 74 % 0.00 in 0 W/m2
22:25 43.3 °F 35.2 °F 29.95 in SSW 9.0 mph 16.0 mph 73 % 0.00 in 0 W/m2
22:30 43.3 °F 35.2 °F 29.95 in SW 9.0 mph 9.0 mph 73 % 0.00 in 0 W/m2
22:35 43.4 °F 35.3 °F 29.94 in SW 10.0 mph 11.0 mph 73 % 0.00 in 0 W/m2
22:40 43.4 °F 35.3 °F 29.94 in SSW 9.0 mph 9.0 mph 73 % 0.00 in 0 W/m2
22:50 43.5 °F 35.1 °F 29.94 in SSW 9.0 mph 16.0 mph 72 % 0.00 in 0 W/m2
22:55 43.5 °F 35.1 °F 29.93 in SSW 8.0 mph 16.0 mph 72 % 0.00 in 0 W/m2
23:00 43.6 °F 35.2 °F 29.93 in WSW 7.0 mph 16.0 mph 72 % 0.00 in 0 W/m2
23:05 43.6 °F 35.2 °F 29.93 in WSW 9.0 mph 16.0 mph 72 % 0.00 in 0 W/m2
23:10 43.6 °F 35.2 °F 29.93 in South 8.0 mph 16.0 mph 72 % 0.00 in 0 W/m2
23:15 43.6 °F 35.5 °F 29.93 in SSW 8.0 mph 16.0 mph 73 % 0.00 in 0 W/m2
23:25 43.5 °F 35.8 °F 29.92 in SSW 8.0 mph 16.0 mph 74 % 0.00 in 0 W/m2
23:30 43.6 °F 35.9 °F 29.91 in SW 9.0 mph 16.0 mph 74 % 0.00 in 0 W/m2
23:35 43.6 °F 36.2 °F 29.92 in SSW 10.0 mph 16.0 mph 75 % 0.00 in 0 W/m2
23:40 43.6 °F 36.2 °F 29.91 in SW 10.0 mph 10.0 mph 75 % 0.00 in 0 W/m2
23:50 43.6 °F 36.5 °F 29.92 in SW 9.0 mph 16.0 mph 76 % 0.00 in 0 W/m2
23:55 43.6 °F 36.9 °F 29.92 in SSW 9.0 mph 16.0 mph 77 % 0.00 in 0 W/m2
Delerius-Weather
Compliments of Weather Underground - 2 mb

Data updates at regular intervals.